createdAt,value
2023-04-13T00:01:26.724Z,356
2023-04-13T00:02:24.013Z,357
2023-04-13T00:04:23.343Z,360
2023-04-13T00:05:24.310Z,357
2023-04-13T00:06:23.769Z,353
2023-04-13T00:08:23.642Z,360
2023-04-13T00:09:23.411Z,366
2023-04-13T00:11:23.381Z,343
2023-04-13T00:12:23.729Z,342
2023-04-13T00:13:23.526Z,352
2023-04-13T00:14:23.598Z,361
2023-04-13T00:15:23.509Z,362
2023-04-13T00:16:24.020Z,350
2023-04-13T00:17:23.464Z,345
2023-04-13T00:18:23.577Z,364
2023-04-13T00:19:23.228Z,362
2023-04-13T00:20:23.709Z,360
2023-04-13T00:21:23.354Z,363
2023-04-13T00:22:23.938Z,369
2023-04-13T00:23:23.994Z,362
2023-04-13T00:24:23.813Z,356
2023-04-13T00:26:23.795Z,355
2023-04-13T00:27:23.320Z,349
2023-04-13T00:28:23.393Z,350
2023-04-13T00:29:23.433Z,354
2023-04-13T00:30:23.753Z,352
2023-04-13T00:31:23.691Z,357
2023-04-13T00:32:23.499Z,360
2023-04-13T00:33:23.640Z,354
2023-04-13T00:34:23.667Z,357
2023-04-13T00:35:23.798Z,360
2023-04-13T00:36:23.375Z,362
2023-04-13T00:37:23.878Z,358
2023-04-13T00:38:24.300Z,355
2023-04-13T00:39:23.606Z,354
2023-04-13T00:40:23.349Z,357
2023-04-13T00:41:23.613Z,352
2023-04-13T00:42:23.405Z,346
2023-04-13T00:43:23.616Z,348
2023-04-13T00:45:23.669Z,360
2023-04-13T00:46:23.942Z,357
2023-04-13T00:47:22.968Z,361
2023-04-13T00:48:23.618Z,357
2023-04-13T00:49:23.134Z,363
2023-04-13T00:50:24.126Z,360
2023-04-13T00:51:23.848Z,362
2023-04-13T00:52:23.975Z,352
2023-04-13T00:53:23.879Z,353
2023-04-13T00:54:23.502Z,348
2023-04-13T00:55:23.844Z,353
2023-04-13T00:56:23.247Z,350
2023-04-13T00:57:23.755Z,347
2023-04-13T00:58:23.384Z,351
2023-04-13T00:59:23.378Z,360
2023-04-13T01:00:24.963Z,366
2023-04-13T01:01:23.690Z,358
2023-04-13T01:02:23.587Z,357
2023-04-13T01:03:31.637Z,362
2023-04-13T01:04:23.516Z,366
2023-04-13T01:05:23.282Z,368
2023-04-13T01:06:23.781Z,365
2023-04-13T01:07:31.655Z,359
2023-04-13T01:08:23.701Z,355
2023-04-13T01:10:23.818Z,359
2023-04-13T01:11:23.615Z,363
2023-04-13T01:13:23.422Z,358
2023-04-13T01:14:24.025Z,353
2023-04-13T01:15:24.313Z,355
2023-04-13T01:16:23.783Z,350
2023-04-13T01:17:24.029Z,360
2023-04-13T01:18:23.879Z,362
2023-04-13T01:19:23.533Z,354
2023-04-13T01:20:23.443Z,353
2023-04-13T01:21:23.396Z,354
2023-04-13T01:22:23.912Z,364
2023-04-13T01:23:23.912Z,358
2023-04-13T01:25:23.931Z,352
2023-04-13T01:26:23.847Z,346
2023-04-13T01:27:23.502Z,347
2023-04-13T01:28:23.987Z,354
2023-04-13T01:29:42.344Z,350
2023-04-13T01:30:24.287Z,357
2023-04-13T01:31:23.949Z,370
2023-04-13T01:32:24.119Z,366
2023-04-13T01:33:23.865Z,362
2023-04-13T01:34:23.386Z,353
2023-04-13T01:35:23.483Z,360
2023-04-13T01:36:23.199Z,369
2023-04-13T01:38:23.508Z,365
2023-04-13T01:39:23.562Z,362
2023-04-13T01:40:23.946Z,359
2023-04-13T01:41:23.677Z,360
2023-04-13T01:42:23.692Z,364
2023-04-13T01:44:23.403Z,355
2023-04-13T01:45:23.647Z,365
2023-04-13T01:46:23.749Z,368
2023-04-13T01:47:23.205Z,361
2023-04-13T01:48:23.321Z,360
2023-04-13T01:49:23.706Z,357
2023-04-13T01:50:23.247Z,347
2023-04-13T01:51:23.792Z,349
2023-04-13T01:52:23.287Z,351
2023-04-13T01:54:26.959Z,362
2023-04-13T01:55:24.027Z,365
2023-04-13T01:56:23.577Z,363
2023-04-13T01:57:23.318Z,354
2023-04-13T01:59:23.377Z,362
2023-04-13T02:00:24.832Z,354
2023-04-13T02:01:23.681Z,350
2023-04-13T02:02:24.393Z,359
2023-04-13T02:03:24.283Z,365
2023-04-13T02:04:23.944Z,359
2023-04-13T02:05:24.052Z,357
2023-04-13T02:06:23.817Z,354
2023-04-13T02:07:23.077Z,357
2023-04-13T02:08:23.771Z,356
2023-04-13T02:09:23.267Z,364
2023-04-13T02:11:23.384Z,363
2023-04-13T02:12:23.762Z,357
2023-04-13T02:14:23.462Z,359
2023-04-13T02:15:23.491Z,365
2023-04-13T02:16:24.076Z,370
2023-04-13T02:17:23.565Z,361
2023-04-13T02:18:23.920Z,355
2023-04-13T02:19:23.361Z,353
2023-04-13T02:20:23.965Z,349
2023-04-13T02:21:23.288Z,352
2023-04-13T02:22:23.549Z,347
2023-04-13T02:23:23.088Z,346
2023-04-13T02:24:24.139Z,350
2023-04-13T02:25:24.341Z,357
2023-04-13T02:26:23.230Z,349
2023-04-13T02:27:23.520Z,344
2023-04-13T02:28:23.409Z,352
2023-04-13T02:29:23.818Z,358
2023-04-13T02:30:24.028Z,361
2023-04-13T02:31:23.484Z,359
2023-04-13T02:32:23.743Z,357
2023-04-13T02:33:23.402Z,351
2023-04-13T02:34:23.259Z,344
2023-04-13T02:35:24.065Z,350
2023-04-13T02:36:23.696Z,352
2023-04-13T02:37:23.275Z,348
2023-04-13T02:38:23.481Z,356
2023-04-13T02:39:23.959Z,363
2023-04-13T02:40:23.770Z,353
2023-04-13T02:41:23.519Z,346
2023-04-13T02:42:23.814Z,348
2023-04-13T02:43:23.437Z,349
2023-04-13T02:44:23.967Z,353
2023-04-13T02:45:24.087Z,359
2023-04-13T02:48:23.731Z,363
2023-04-13T02:49:23.247Z,376
2023-04-13T02:50:23.511Z,371
2023-04-13T02:52:26.790Z,359
2023-04-13T02:53:23.536Z,358
2023-04-13T02:54:23.468Z,352
2023-04-13T02:55:24.185Z,361
2023-04-13T02:56:23.799Z,362
2023-04-13T02:57:23.743Z,359
2023-04-13T02:58:23.344Z,360
2023-04-13T02:59:23.764Z,362
2023-04-13T03:00:25.082Z,361
2023-04-13T03:01:23.756Z,360
2023-04-13T03:02:24.190Z,363
2023-04-13T03:03:23.443Z,349
2023-04-13T03:04:23.993Z,348
2023-04-13T03:05:24.112Z,358
2023-04-13T03:06:23.806Z,370
2023-04-13T03:08:23.866Z,367
2023-04-13T03:09:23.639Z,356
2023-04-13T03:10:23.861Z,358
2023-04-13T03:11:23.510Z,360
2023-04-13T03:12:23.344Z,363
2023-04-13T03:13:23.668Z,356
2023-04-13T03:14:23.217Z,359
2023-04-13T03:15:23.703Z,362
2023-04-13T03:16:23.380Z,349
2023-04-13T03:17:24.114Z,352
2023-04-13T03:18:23.429Z,365
2023-04-13T03:21:23.604Z,357
2023-04-13T03:23:24.132Z,368
2023-04-13T03:24:23.678Z,364
2023-04-13T03:25:24.075Z,365
2023-04-13T03:26:23.665Z,366
2023-04-13T03:28:23.767Z,365
2023-04-13T03:29:23.331Z,354
2023-04-13T03:30:24.116Z,359
2023-04-13T03:32:23.588Z,371
2023-04-13T03:33:23.531Z,368
2023-04-13T03:34:23.945Z,369
2023-04-13T03:35:23.861Z,356
2023-04-13T03:37:23.366Z,367
2023-04-13T03:38:23.789Z,371
2023-04-13T03:39:23.547Z,370
2023-04-13T03:41:24.181Z,365
2023-04-13T03:42:23.905Z,363
2023-04-13T03:43:23.568Z,353
2023-04-13T03:46:23.938Z,357
2023-04-13T03:47:23.664Z,360
2023-04-13T03:48:23.793Z,358
2023-04-13T03:49:23.670Z,352
2023-04-13T03:50:23.470Z,356
2023-04-13T03:51:23.796Z,351
2023-04-13T03:52:23.768Z,363
2023-04-13T03:53:23.790Z,362
2023-04-13T03:54:23.102Z,365
2023-04-13T03:55:23.749Z,368
2023-04-13T03:56:23.200Z,360
2023-04-13T03:57:23.680Z,364
2023-04-13T03:58:23.620Z,357
2023-04-13T03:59:23.361Z,360
2023-04-13T04:00:24.547Z,356
2023-04-13T04:02:23.971Z,370
2023-04-13T04:03:23.432Z,365
2023-04-13T04:04:23.731Z,359
2023-04-13T04:05:23.773Z,361
2023-04-13T04:07:22.915Z,368
2023-04-13T04:08:23.358Z,357
2023-04-13T04:09:24.068Z,351
2023-04-13T04:10:23.855Z,355
2023-04-13T04:11:23.493Z,361
2023-04-13T04:12:23.282Z,355
2023-04-13T04:13:24.033Z,353
2023-04-13T04:14:23.810Z,358
2023-04-13T04:15:23.780Z,363
2023-04-13T04:17:23.487Z,363
2023-04-13T04:18:23.470Z,360
2023-04-13T04:19:23.370Z,364
2023-04-13T04:20:23.059Z,365
2023-04-13T04:21:23.856Z,360
2023-04-13T04:22:23.595Z,350
2023-04-13T04:24:23.821Z,356
2023-04-13T04:25:23.859Z,361
2023-04-13T04:26:23.661Z,365
2023-04-13T04:27:23.296Z,374
2023-04-13T04:28:23.488Z,357
2023-04-13T04:30:24.546Z,369
2023-04-13T04:31:23.454Z,358
2023-04-13T04:32:23.786Z,369
2023-04-13T04:33:23.368Z,371
2023-04-13T04:34:23.620Z,368
2023-04-13T04:35:23.142Z,355
2023-04-13T04:36:24.102Z,361
2023-04-13T04:38:23.707Z,360
2023-04-13T04:39:23.538Z,359
2023-04-13T04:40:23.341Z,364
2023-04-13T04:41:23.212Z,358
2023-04-13T04:43:23.428Z,356
2023-04-13T04:44:23.606Z,363
2023-04-13T04:45:23.833Z,360
2023-04-13T04:46:24.406Z,351
2023-04-13T04:47:23.387Z,359
2023-04-13T04:48:23.412Z,366
2023-04-13T04:49:23.242Z,360
2023-04-13T04:50:23.963Z,356
2023-04-13T04:51:23.592Z,350
2023-04-13T04:52:25.089Z,361
2023-04-13T04:53:23.917Z,358
2023-04-13T04:54:23.782Z,354
2023-04-13T04:55:23.529Z,360
2023-04-13T04:56:23.497Z,361
2023-04-13T04:57:23.245Z,357
2023-04-13T04:58:23.241Z,355
2023-04-13T04:59:23.812Z,362
2023-04-13T05:00:24.606Z,359
2023-04-13T05:03:23.787Z,366
2023-04-13T05:04:23.343Z,348
2023-04-13T05:05:23.421Z,350
2023-04-13T05:06:23.644Z,357
2023-04-13T05:07:23.544Z,365
2023-04-13T05:08:23.542Z,367
2023-04-13T05:09:23.795Z,363
2023-04-13T05:10:23.672Z,365
2023-04-13T05:11:23.923Z,373
2023-04-13T05:12:23.579Z,375
2023-04-13T05:13:23.452Z,363
2023-04-13T05:14:23.514Z,354
2023-04-13T05:15:24.030Z,359
2023-04-13T05:16:24.296Z,357
2023-04-13T05:17:23.859Z,358
2023-04-13T05:18:24.050Z,356
2023-04-13T05:19:24.226Z,352
2023-04-13T05:20:23.887Z,368
2023-04-13T05:21:24.002Z,373
2023-04-13T05:22:24.061Z,365
2023-04-13T05:23:23.975Z,369
2023-04-13T05:24:23.996Z,367
2023-04-13T05:25:24.102Z,372
2023-04-13T05:26:23.640Z,365
2023-04-13T05:27:23.103Z,368
2023-04-13T05:28:23.475Z,364
2023-04-13T05:29:23.361Z,360
2023-04-13T05:30:24.322Z,358
2023-04-13T05:31:24.055Z,367
2023-04-13T05:32:23.795Z,375
2023-04-13T05:33:23.989Z,365
2023-04-13T05:34:24.349Z,361
2023-04-13T05:35:23.917Z,363
2023-04-13T05:37:23.725Z,360
2023-04-13T05:38:23.512Z,368
2023-04-13T05:39:23.472Z,361
2023-04-13T05:40:23.629Z,359
2023-04-13T05:41:28.473Z,370
2023-04-13T05:42:23.673Z,361
2023-04-13T05:43:24.038Z,356
2023-04-13T05:44:23.937Z,348
2023-04-13T05:45:24.304Z,350
2023-04-13T05:46:23.715Z,349
2023-04-13T05:47:23.296Z,359
2023-04-13T05:48:23.850Z,364
2023-04-13T05:49:23.980Z,367
2023-04-13T05:50:23.991Z,365
2023-04-13T05:51:23.968Z,371
2023-04-13T05:52:23.707Z,367
2023-04-13T05:53:23.842Z,365
2023-04-13T05:54:24.163Z,362
2023-04-13T05:55:23.957Z,356
2023-04-13T05:56:24.122Z,348
2023-04-13T05:57:32.060Z,361
2023-04-13T05:58:23.303Z,354
2023-04-13T06:00:24.772Z,360
2023-04-13T06:01:38.432Z,364
2023-04-13T06:02:23.811Z,365
2023-04-13T06:03:23.818Z,362
2023-04-13T06:04:24.001Z,368
2023-04-13T06:05:23.882Z,366
2023-04-13T06:06:24.183Z,358
2023-04-13T06:07:24.312Z,357
2023-04-13T06:09:23.640Z,359
2023-04-13T06:10:23.912Z,360
2023-04-13T06:11:24.059Z,362
2023-04-13T06:12:24.125Z,360
2023-04-13T06:13:24.410Z,361
2023-04-13T06:14:23.391Z,360
2023-04-13T06:15:24.364Z,372
2023-04-13T06:16:23.748Z,364
2023-04-13T06:17:23.967Z,367
2023-04-13T06:18:23.688Z,362
2023-04-13T06:19:23.472Z,357
2023-04-13T06:20:23.540Z,366
2023-04-13T06:21:23.368Z,365
2023-04-13T06:23:23.414Z,361
2023-04-13T06:24:23.651Z,366
2023-04-13T06:26:23.782Z,365
2023-04-13T06:27:24.110Z,363
2023-04-13T06:28:23.863Z,362
2023-04-13T06:29:23.599Z,377
2023-04-13T06:31:23.564Z,359
2023-04-13T06:32:23.428Z,357
2023-04-13T06:33:23.267Z,362
2023-04-13T06:34:23.840Z,367
2023-04-13T06:35:24.401Z,371
2023-04-13T06:36:23.473Z,366
2023-04-13T06:37:23.589Z,362
2023-04-13T06:38:23.553Z,368
2023-04-13T06:40:23.809Z,366
2023-04-13T06:41:24.014Z,365
2023-04-13T06:42:24.056Z,355
2023-04-13T06:43:29.427Z,352
2023-04-13T06:44:23.559Z,356
2023-04-13T06:45:23.663Z,368
2023-04-13T06:46:23.565Z,371
2023-04-13T06:47:23.700Z,369
2023-04-13T06:48:23.893Z,368
2023-04-13T06:49:23.683Z,362
2023-04-13T06:50:24.086Z,369
2023-04-13T06:52:23.406Z,372
2023-04-13T06:54:27.048Z,361
2023-04-13T06:55:24.115Z,358
2023-04-13T06:56:23.898Z,363
2023-04-13T06:57:23.957Z,372
2023-04-13T06:58:23.902Z,368
2023-04-13T07:00:30.158Z,358
2023-04-13T07:01:24.303Z,367
2023-04-13T07:02:23.803Z,365
2023-04-13T07:03:24.334Z,366
2023-04-13T07:04:27.424Z,371
2023-04-13T07:05:23.737Z,365
2023-04-13T07:06:23.534Z,368
2023-04-13T07:07:23.758Z,371
2023-04-13T07:08:23.466Z,363
2023-04-13T07:09:23.993Z,360
2023-04-13T07:10:24.159Z,358
2023-04-13T07:11:23.383Z,368
2023-04-13T07:12:23.424Z,363
2023-04-13T07:14:23.551Z,364
2023-04-13T07:15:24.237Z,349
2023-04-13T07:16:23.403Z,351
2023-04-13T07:17:23.858Z,359
2023-04-13T07:19:24.047Z,366
2023-04-13T07:21:23.822Z,359
2023-04-13T07:22:23.466Z,360
2023-04-13T07:23:23.271Z,355
2023-04-13T07:24:23.892Z,362
2023-04-13T07:25:23.880Z,366
2023-04-13T07:26:23.970Z,367
2023-04-13T07:27:23.745Z,358
2023-04-13T07:28:23.164Z,350
2023-04-13T07:29:23.663Z,354
2023-04-13T07:30:23.893Z,362
2023-04-13T07:32:30.250Z,366
2023-04-13T07:33:23.858Z,364
2023-04-13T07:34:24.134Z,367
2023-04-13T07:35:23.944Z,357
2023-04-13T07:36:23.700Z,360
2023-04-13T07:37:23.391Z,347
2023-04-13T07:38:23.581Z,345
2023-04-13T07:39:23.458Z,350
2023-04-13T07:40:24.436Z,352
2023-04-13T07:41:23.479Z,356
2023-04-13T07:42:23.234Z,358
2023-04-13T07:43:23.942Z,348
2023-04-13T07:44:23.283Z,346
2023-04-13T07:45:24.129Z,355
2023-04-13T07:46:23.852Z,358
2023-04-13T07:47:23.737Z,366
2023-04-13T07:49:23.209Z,359
2023-04-13T07:50:24.254Z,351
2023-04-13T07:51:23.656Z,360
2023-04-13T07:52:23.555Z,356
2023-04-13T07:53:23.765Z,347
2023-04-13T07:54:23.721Z,361
2023-04-13T07:55:23.840Z,357
2023-04-13T07:56:23.889Z,356
2023-04-13T07:57:23.712Z,350
2023-04-13T07:58:23.386Z,355
2023-04-13T07:59:25.117Z,382
2023-04-13T08:00:24.412Z,378
2023-04-13T08:01:23.095Z,372
2023-04-13T08:02:23.504Z,375
2023-04-13T08:03:23.360Z,362
2023-04-13T08:04:23.262Z,345
2023-04-13T08:05:24.225Z,353
2023-04-13T08:06:23.890Z,351
2023-04-13T08:07:23.532Z,346
2023-04-13T08:08:28.540Z,349
2023-04-13T08:09:23.860Z,347
2023-04-13T08:10:24.543Z,359
2023-04-13T08:11:23.585Z,362
2023-04-13T08:12:28.258Z,364
2023-04-13T08:13:23.234Z,362
2023-04-13T08:14:24.016Z,357
2023-04-13T08:15:23.679Z,355
2023-04-13T08:16:23.601Z,362
2023-04-13T08:17:23.970Z,365
2023-04-13T08:18:24.122Z,370
2023-04-13T08:19:23.705Z,353
2023-04-13T08:20:23.807Z,358
2023-04-13T08:21:23.597Z,353
2023-04-13T08:22:31.493Z,347
2023-04-13T08:23:23.717Z,349
2023-04-13T08:24:23.637Z,355
2023-04-13T08:25:23.739Z,351
2023-04-13T08:26:23.535Z,358
2023-04-13T08:28:23.449Z,377
2023-04-13T08:29:23.689Z,371
2023-04-13T08:30:24.461Z,380
2023-04-13T08:31:23.671Z,361
2023-04-13T08:33:23.738Z,367
2023-04-13T08:34:23.521Z,372
2023-04-13T08:35:24.080Z,366
2023-04-13T08:36:38.175Z,357
2023-04-13T08:37:23.877Z,352
2023-04-13T08:38:23.673Z,355
2023-04-13T08:39:24.060Z,360
2023-04-13T08:40:23.955Z,364
2023-04-13T08:41:24.052Z,357
2023-04-13T08:42:25.135Z,352
2023-04-13T08:43:23.678Z,360
2023-04-13T08:44:23.612Z,354
2023-04-13T08:45:24.110Z,353
2023-04-13T08:46:24.126Z,352
2023-04-13T08:47:24.078Z,360
2023-04-13T08:48:24.259Z,361
2023-04-13T08:49:24.167Z,353
2023-04-13T08:50:42.826Z,363
2023-04-13T08:51:23.814Z,366
2023-04-13T08:52:23.474Z,359
2023-04-13T08:53:24.012Z,348
2023-04-13T08:56:30.933Z,356
2023-04-13T08:57:24.214Z,358
2023-04-13T08:58:24.121Z,362
2023-04-13T08:59:23.284Z,353
2023-04-13T09:00:24.368Z,349
2023-04-13T09:01:23.583Z,357
2023-04-13T09:02:23.874Z,361
2023-04-13T09:03:24.372Z,360
2023-04-13T09:04:23.722Z,348
2023-04-13T09:05:23.902Z,355
2023-04-13T09:06:23.853Z,349
2023-04-13T09:07:23.692Z,350
2023-04-13T09:09:24.288Z,344
2023-04-13T09:10:23.856Z,348
2023-04-13T09:11:23.815Z,344
2023-04-13T09:12:23.328Z,341
2023-04-13T09:13:24.064Z,343
2023-04-13T09:14:23.785Z,346
2023-04-13T09:16:23.584Z,358
2023-04-13T09:17:23.444Z,354
2023-04-13T09:18:23.449Z,355
2023-04-13T09:19:23.508Z,354
2023-04-13T09:20:23.500Z,355
2023-04-13T09:21:23.567Z,361
2023-04-13T09:22:23.357Z,357
2023-04-13T09:23:23.365Z,352
2023-04-13T09:24:23.477Z,355
2023-04-13T09:25:23.998Z,350
2023-04-13T09:26:23.939Z,353
2023-04-13T09:27:24.485Z,347
2023-04-13T09:28:24.371Z,350
2023-04-13T09:29:23.589Z,361
2023-04-13T09:30:23.808Z,368
2023-04-13T09:31:23.727Z,362
2023-04-13T09:32:23.758Z,358
2023-04-13T09:33:23.812Z,362
2023-04-13T09:34:23.977Z,364
2023-04-13T09:35:24.150Z,350
2023-04-13T09:36:23.736Z,361
2023-04-13T09:37:23.492Z,363
2023-04-13T09:38:23.480Z,364
2023-04-13T09:40:23.745Z,360
2023-04-13T09:41:23.864Z,366
2023-04-13T09:42:23.750Z,362
2023-04-13T09:43:23.346Z,358
2023-04-13T09:44:23.632Z,353
2023-04-13T09:45:23.664Z,360
2023-04-13T09:46:23.632Z,359
2023-04-13T09:47:23.363Z,352
2023-04-13T09:48:23.486Z,350
2023-04-13T09:49:24.081Z,355
2023-04-13T09:50:24.078Z,351
2023-04-13T09:51:23.395Z,353
2023-04-13T09:52:23.747Z,357
2023-04-13T09:53:24.009Z,361
2023-04-13T09:54:24.049Z,355
2023-04-13T09:55:23.547Z,350
2023-04-13T09:56:24.009Z,348
2023-04-13T09:57:23.427Z,346
2023-04-13T09:58:25.414Z,335
2023-04-13T09:59:23.609Z,344
2023-04-13T10:00:24.803Z,350
2023-04-13T10:01:23.886Z,354
2023-04-13T10:02:24.177Z,365
2023-04-13T10:03:24.133Z,368
2023-04-13T10:04:23.503Z,357
2023-04-13T10:05:24.392Z,352
2023-04-13T10:06:23.665Z,350
2023-04-13T10:07:23.840Z,344
2023-04-13T10:08:36.615Z,352
2023-04-13T10:09:24.375Z,349
2023-04-13T10:10:24.161Z,348
2023-04-13T10:11:24.017Z,349
2023-04-13T10:12:23.911Z,357
2023-04-13T10:13:24.421Z,356
2023-04-13T10:14:24.235Z,348
2023-04-13T10:15:24.419Z,356
2023-04-13T10:16:23.928Z,362
2023-04-13T10:17:24.183Z,360
2023-04-13T10:18:23.579Z,354
2023-04-13T10:19:23.636Z,362
2023-04-13T10:20:24.338Z,360
2023-04-13T10:21:23.851Z,359
2023-04-13T10:23:24.025Z,357
2023-04-13T10:24:24.231Z,362
2023-04-13T10:25:33.157Z,352
2023-04-13T10:26:23.421Z,363
2023-04-13T10:27:23.446Z,360
2023-04-13T10:28:25.679Z,350
2023-04-13T10:29:23.443Z,355
2023-04-13T10:30:24.105Z,356
2023-04-13T10:31:23.922Z,364
2023-04-13T10:32:24.146Z,351
2023-04-13T10:33:23.531Z,355
2023-04-13T10:34:23.714Z,345
2023-04-13T10:35:23.696Z,347
2023-04-13T10:36:24.129Z,354
2023-04-13T10:37:28.950Z,355
2023-04-13T10:38:23.732Z,358
2023-04-13T10:39:23.865Z,353
2023-04-13T10:40:24.314Z,350
2023-04-13T10:41:28.444Z,347
2023-04-13T10:42:23.527Z,351
2023-04-13T10:43:31.522Z,355
2023-04-13T10:44:23.717Z,358
2023-04-13T10:45:24.083Z,352
2023-04-13T10:46:24.033Z,360
2023-04-13T10:48:23.768Z,363
2023-04-13T10:49:23.885Z,361
2023-04-13T10:50:24.042Z,360
2023-04-13T10:51:37.836Z,354
2023-04-13T10:52:23.562Z,347
2023-04-13T10:53:25.979Z,338
2023-04-13T10:54:23.696Z,360
2023-04-13T10:55:37.788Z,371
2023-04-13T10:56:23.982Z,368
2023-04-13T10:57:23.877Z,364
2023-04-13T10:58:23.725Z,366
2023-04-13T10:59:24.139Z,362
2023-04-13T11:00:34.746Z,352
2023-04-13T11:01:23.632Z,350
2023-04-13T11:02:23.666Z,357
2023-04-13T11:03:23.740Z,356
2023-04-13T11:05:24.592Z,354
2023-04-13T11:07:24.117Z,350
2023-04-13T11:08:24.319Z,356
2023-04-13T11:09:23.489Z,352
2023-04-13T11:10:24.559Z,343
2023-04-13T11:11:23.786Z,347
2023-04-13T11:12:23.818Z,349
2023-04-13T11:13:23.408Z,348
2023-04-13T11:14:23.793Z,344
2023-04-13T11:15:42.966Z,347
2023-04-13T11:16:23.818Z,356
2023-04-13T11:17:23.855Z,363
2023-04-13T11:18:24.024Z,364
2023-04-13T11:19:23.574Z,359
2023-04-13T11:20:24.022Z,350
2023-04-13T11:21:23.695Z,340
2023-04-13T11:22:23.870Z,347
2023-04-13T11:23:24.340Z,349
2023-04-13T11:24:23.231Z,356
2023-04-13T11:25:23.982Z,360
2023-04-13T11:26:23.201Z,355
2023-04-13T11:27:23.568Z,353
2023-04-13T11:28:23.511Z,356
2023-04-13T11:29:23.254Z,353
2023-04-13T11:31:23.059Z,352
2023-04-13T11:32:23.601Z,361
2023-04-13T11:33:23.366Z,357
2023-04-13T11:34:23.627Z,349
2023-04-13T11:35:23.993Z,341
2023-04-13T11:36:23.993Z,339
2023-04-13T11:37:23.517Z,342
2023-04-13T11:38:23.192Z,352
2023-04-13T11:41:23.622Z,346
2023-04-13T11:42:23.405Z,349
2023-04-13T11:43:23.705Z,342
2023-04-13T11:44:23.925Z,355
2023-04-13T11:45:24.547Z,349
2023-04-13T11:46:23.679Z,342
2023-04-13T11:47:23.960Z,346
2023-04-13T11:48:24.365Z,342
2023-04-13T11:49:23.795Z,349
2023-04-13T11:50:23.863Z,346
2023-04-13T11:51:23.691Z,344
2023-04-13T11:53:23.639Z,345
2023-04-13T11:54:23.371Z,350
2023-04-13T11:55:24.417Z,353
2023-04-13T11:56:23.562Z,347
2023-04-13T11:57:23.504Z,350
2023-04-13T11:58:23.477Z,349
2023-04-13T11:59:23.086Z,347
2023-04-13T12:00:24.809Z,350
2023-04-13T12:01:26.161Z,355
2023-04-13T12:02:23.586Z,357
2023-04-13T12:03:38.372Z,366
2023-04-13T12:04:23.972Z,354
2023-04-13T12:05:24.056Z,333
2023-04-13T12:06:23.462Z,334
2023-04-13T12:07:23.852Z,348
2023-04-13T12:09:36.995Z,348
2023-04-13T12:10:38.341Z,343
2023-04-13T12:14:45.001Z,350
2023-04-13T12:15:40.219Z,348
2023-04-13T12:16:55.548Z,341
2023-04-13T12:17:38.938Z,342
2023-04-13T12:19:24.682Z,350
2023-04-13T12:20:23.908Z,354
2023-04-13T12:21:24.016Z,352
2023-04-13T12:22:23.892Z,350
2023-04-13T12:23:24.615Z,353
2023-04-13T12:25:24.839Z,348
2023-04-13T12:26:59.337Z,344
2023-04-13T12:27:30.209Z,348
2023-04-13T12:28:23.349Z,344
2023-04-13T12:29:23.683Z,341
2023-04-13T12:31:23.470Z,344
2023-04-13T12:32:24.181Z,341
2023-04-13T12:34:23.624Z,351
2023-04-13T12:35:23.917Z,348
2023-04-13T12:38:23.938Z,352
2023-04-13T12:39:23.636Z,342
2023-04-13T12:40:23.987Z,346
2023-04-13T12:41:23.773Z,362
2023-04-13T12:42:23.603Z,350
2023-04-13T12:43:23.589Z,344
2023-04-13T12:44:23.271Z,346
2023-04-13T12:45:24.151Z,345
2023-04-13T12:46:23.327Z,344
2023-04-13T12:47:23.903Z,346
2023-04-13T12:49:23.839Z,350
2023-04-13T12:51:23.272Z,343
2023-04-13T12:53:23.491Z,348
2023-04-13T12:55:23.602Z,351
2023-04-13T12:56:23.571Z,350
2023-04-13T12:59:24.328Z,357
2023-04-13T13:00:25.040Z,366
2023-04-13T13:01:23.552Z,371
2023-04-13T13:02:24.257Z,363
2023-04-13T13:03:23.557Z,357
2023-04-13T13:04:23.815Z,350
2023-04-13T13:05:23.980Z,345
2023-04-13T13:06:28.816Z,338
2023-04-13T13:07:23.615Z,350
2023-04-13T13:08:23.798Z,358
2023-04-13T13:09:23.974Z,356
2023-04-13T13:10:29.479Z,345
2023-04-13T13:11:23.541Z,340
2023-04-13T13:12:23.953Z,338
2023-04-13T13:13:24.133Z,341
2023-04-13T13:14:23.678Z,346
2023-04-13T13:15:23.950Z,357
2023-04-13T13:16:38.063Z,355
2023-04-13T13:17:23.576Z,344
2023-04-13T13:18:24.748Z,342
2023-04-13T13:19:23.763Z,341
2023-04-13T13:21:24.213Z,348
2023-04-13T13:22:24.069Z,358
2023-04-13T13:25:23.699Z,361
2023-04-13T13:26:26.141Z,357
2023-04-13T13:28:23.729Z,334
2023-04-13T13:29:23.497Z,338
2023-04-13T13:30:24.228Z,336
2023-04-13T13:31:23.369Z,344
2023-04-13T13:32:23.685Z,350
2023-04-13T13:33:23.742Z,345
2023-04-13T13:34:23.752Z,351
2023-04-13T13:35:23.872Z,353
2023-04-13T13:36:23.823Z,354
2023-04-13T13:37:23.665Z,352
2023-04-13T13:38:23.844Z,351
2023-04-13T13:39:23.716Z,356
2023-04-13T13:40:23.914Z,370
2023-04-13T13:41:23.509Z,358
2023-04-13T13:42:51.785Z,352
2023-04-13T13:43:27.690Z,358
2023-04-13T13:44:23.803Z,355
2023-04-13T13:45:24.290Z,359
2023-04-13T13:46:23.774Z,356
2023-04-13T13:47:23.847Z,349
2023-04-13T13:48:23.888Z,353
2023-04-13T13:49:23.450Z,366
2023-04-13T13:50:23.623Z,360
2023-04-13T13:51:24.007Z,347
2023-04-13T13:52:23.721Z,346
2023-04-13T13:53:23.939Z,348
2023-04-13T13:54:23.986Z,343
2023-04-13T13:55:23.902Z,346
2023-04-13T13:56:23.685Z,345
2023-04-13T13:57:23.957Z,349
2023-04-13T13:58:24.102Z,354
2023-04-13T14:00:24.767Z,343
2023-04-13T14:01:23.761Z,340
2023-04-13T14:02:23.928Z,350
2023-04-13T14:03:23.778Z,345
2023-04-13T14:04:23.406Z,338
2023-04-13T14:05:24.260Z,330
2023-04-13T14:06:23.579Z,331
2023-04-13T14:07:23.792Z,338
2023-04-13T14:09:23.893Z,336
2023-04-13T14:11:24.379Z,340
2023-04-13T14:12:23.874Z,337
2023-04-13T14:13:23.950Z,330
2023-04-13T14:14:24.108Z,346
2023-04-13T14:15:23.975Z,348
2023-04-13T14:16:24.074Z,343
2023-04-13T14:17:24.062Z,339
2023-04-13T14:18:23.561Z,337
2023-04-13T14:19:23.714Z,341
2023-04-13T14:21:23.808Z,347
2023-04-13T14:23:24.128Z,350
2023-04-13T14:25:23.906Z,345
2023-04-13T14:26:23.951Z,346
2023-04-13T14:27:23.964Z,344
2023-04-13T14:28:23.956Z,336
2023-04-13T14:29:23.844Z,343
2023-04-13T14:30:27.409Z,347
2023-04-13T14:31:23.626Z,354
2023-04-13T14:32:23.795Z,358
2023-04-13T14:33:24.141Z,352
2023-04-13T14:34:23.522Z,361
2023-04-13T14:35:23.992Z,359
2023-04-13T14:36:23.940Z,352
2023-04-13T14:37:24.126Z,350
2023-04-13T14:38:24.160Z,347
2023-04-13T14:39:23.746Z,352
2023-04-13T14:40:24.453Z,349
2023-04-13T14:41:23.870Z,356
2023-04-13T14:42:23.911Z,344
2023-04-13T14:43:24.164Z,346
2023-04-13T14:45:27.044Z,351
2023-04-13T14:46:24.352Z,348
2023-04-13T14:47:24.066Z,347
2023-04-13T14:48:24.175Z,350
2023-04-13T14:49:24.005Z,356
2023-04-13T14:50:24.303Z,346
2023-04-13T14:51:24.231Z,352
2023-04-13T14:52:23.995Z,351
2023-04-13T14:53:23.755Z,357
2023-04-13T14:54:24.095Z,359
2023-04-13T14:55:24.274Z,352
2023-04-13T14:56:23.876Z,357
2023-04-13T14:57:24.018Z,351
2023-04-13T14:58:23.878Z,353
2023-04-13T14:59:24.169Z,343
2023-04-13T15:00:25.529Z,335
2023-04-13T15:01:24.555Z,346
2023-04-13T15:02:23.943Z,355
2023-04-13T15:03:24.264Z,349
2023-04-13T15:04:24.025Z,350
2023-04-13T15:05:24.116Z,352
2023-04-13T15:06:24.443Z,358
2023-04-13T15:07:23.801Z,353
2023-04-13T15:08:23.803Z,352
2023-04-13T15:09:23.867Z,358
2023-04-13T15:10:24.497Z,361
2023-04-13T15:11:23.806Z,348
2023-04-13T15:12:23.575Z,336
2023-04-13T15:13:23.693Z,344
2023-04-13T15:14:23.954Z,345
2023-04-13T15:16:24.030Z,339
2023-04-13T15:17:24.183Z,343
2023-04-13T15:18:23.674Z,341
2023-04-13T15:19:23.535Z,338
2023-04-13T15:20:24.187Z,353
2023-04-13T15:21:23.849Z,352